createdAt,value
2023-05-14T00:02:18.193Z,11.60
2023-05-14T00:04:46.856Z,11.50
2023-05-14T00:07:16.415Z,11.44
2023-05-14T00:09:45.029Z,11.38
2023-05-14T00:12:13.714Z,11.30
2023-05-14T00:14:42.405Z,11.20
2023-05-14T00:17:10.988Z,11.12
2023-05-14T00:19:41.393Z,11.10
2023-05-14T00:22:10.229Z,11.02
2023-05-14T00:24:38.836Z,11.00
2023-05-14T00:27:07.908Z,11.00
2023-05-14T00:29:36.499Z,11.00
2023-05-14T00:32:06.325Z,11.00
2023-05-14T00:34:35.258Z,11.00
2023-05-14T00:37:03.942Z,11.00
2023-05-14T00:39:32.558Z,11.04
2023-05-14T00:42:01.113Z,11.10
2023-05-14T00:44:29.982Z,11.10
2023-05-14T00:46:58.832Z,11.20
2023-05-14T00:49:29.190Z,11.20
2023-05-14T00:51:59.935Z,11.20
2023-05-14T00:54:30.309Z,11.28
2023-05-14T00:56:59.661Z,11.30
2023-05-14T00:59:28.336Z,11.30
2023-05-14T01:01:57.279Z,11.30
2023-05-14T01:04:25.986Z,11.40
2023-05-14T01:07:01.351Z,11.40
2023-05-14T01:09:35.716Z,11.40
2023-05-14T01:12:08.766Z,11.48
2023-05-14T01:14:42.618Z,11.50
2023-05-14T01:17:12.269Z,11.50
2023-05-14T01:19:42.540Z,11.50
2023-05-14T01:22:11.431Z,11.50
2023-05-14T01:24:40.317Z,11.52
2023-05-14T01:27:15.824Z,11.60
2023-05-14T01:29:46.870Z,11.60
2023-05-14T01:32:15.785Z,11.60
2023-05-14T01:34:46.063Z,11.60
2023-05-14T01:37:15.591Z,11.60
2023-05-14T01:39:45.177Z,11.60
2023-05-14T01:42:14.112Z,11.60
2023-05-14T01:44:42.947Z,11.60
2023-05-14T01:47:11.585Z,11.50
2023-05-14T01:49:40.453Z,11.50
2023-05-14T01:52:09.306Z,11.50
2023-05-14T01:54:37.870Z,11.40
2023-05-14T01:57:06.887Z,11.40
2023-05-14T01:59:35.511Z,11.40
2023-05-14T02:02:04.367Z,11.30
2023-05-14T02:04:33.305Z,11.30
2023-05-14T02:07:01.990Z,11.30
2023-05-14T02:09:30.647Z,11.30
2023-05-14T02:12:02.645Z,11.30
2023-05-14T02:14:31.330Z,11.24
2023-05-14T02:16:59.897Z,11.20
2023-05-14T02:19:28.840Z,11.20
2023-05-14T02:21:58.871Z,11.18
2023-05-14T02:24:27.651Z,11.10
2023-05-14T02:26:56.322Z,11.08
2023-05-14T02:29:25.055Z,11.00
2023-05-14T02:31:54.050Z,11.00
2023-05-14T02:34:23.231Z,10.90
2023-05-14T02:36:52.433Z,10.90
2023-05-14T02:39:21.072Z,10.80
2023-05-14T02:41:50.040Z,10.76
2023-05-14T02:44:19.037Z,10.70
2023-05-14T02:46:47.884Z,10.70
2023-05-14T02:49:16.562Z,10.64
2023-05-14T02:51:45.147Z,10.60
2023-05-14T02:54:15.876Z,10.60
2023-05-14T02:56:44.519Z,10.70
2023-05-14T02:59:13.386Z,10.70
2023-05-14T03:01:42.386Z,10.80
2023-05-14T03:04:11.614Z,10.80
2023-05-14T03:06:40.263Z,10.84
2023-05-14T03:09:08.958Z,10.90
2023-05-14T03:11:37.810Z,10.90
2023-05-14T03:14:06.478Z,10.80
2023-05-14T03:16:35.320Z,10.80
2023-05-14T03:19:04.104Z,10.70
2023-05-14T03:21:33.106Z,10.70
2023-05-14T03:24:01.752Z,10.60
2023-05-14T03:26:30.379Z,10.60
2023-05-14T03:28:59.021Z,10.60
2023-05-14T03:31:27.722Z,10.60
2023-05-14T03:33:58.208Z,10.54
2023-05-14T03:36:26.817Z,10.50
2023-05-14T03:38:55.501Z,10.50
2023-05-14T03:41:24.289Z,10.52
2023-05-14T03:43:52.926Z,10.60
2023-05-14T03:46:21.573Z,10.60
2023-05-14T03:48:50.356Z,10.60
2023-05-14T03:51:19.539Z,10.60
2023-05-14T03:53:48.202Z,10.70
2023-05-14T03:56:17.027Z,10.70
2023-05-14T03:58:45.790Z,10.70
2023-05-14T04:01:14.375Z,10.74
2023-05-14T04:03:43.523Z,10.80
2023-05-14T04:06:12.758Z,10.80
2023-05-14T04:08:41.464Z,10.90
2023-05-14T04:11:10.168Z,10.90
2023-05-14T04:13:38.755Z,11.00
2023-05-14T04:16:07.975Z,11.00
2023-05-14T04:18:37.146Z,11.10
2023-05-14T04:21:06.313Z,11.12
2023-05-14T04:23:34.941Z,11.20
2023-05-14T04:26:04.443Z,11.30
2023-05-14T04:28:33.097Z,11.34
2023-05-14T04:31:01.832Z,11.44
2023-05-14T04:33:30.539Z,11.60
2023-05-14T04:35:59.124Z,11.60
2023-05-14T04:38:27.995Z,11.70
2023-05-14T04:40:56.871Z,11.80
2023-05-14T04:43:25.495Z,11.88
2023-05-14T04:45:54.117Z,12.00
2023-05-14T04:48:22.969Z,12.10
2023-05-14T04:50:51.999Z,12.20
2023-05-14T04:53:20.582Z,12.30
2023-05-14T04:55:49.120Z,12.40
2023-05-14T04:58:17.832Z,12.60
2023-05-14T05:00:46.528Z,12.80
2023-05-14T05:03:15.187Z,12.90
2023-05-14T05:05:43.986Z,13.00
2023-05-14T05:08:12.617Z,13.20
2023-05-14T05:10:41.338Z,13.36
2023-05-14T05:13:09.961Z,13.50
2023-05-14T05:15:38.657Z,13.70
2023-05-14T05:18:07.398Z,13.90
2023-05-14T05:20:36.225Z,14.10
2023-05-14T05:23:04.923Z,14.20
2023-05-14T05:25:33.462Z,14.40
2023-05-14T05:28:02.390Z,14.50
2023-05-14T05:30:30.991Z,14.58
2023-05-14T05:32:59.783Z,14.70
2023-05-14T05:35:28.358Z,14.90
2023-05-14T05:37:59.108Z,14.90
2023-05-14T05:40:29.181Z,14.90
2023-05-14T05:42:57.898Z,14.90
2023-05-14T05:45:26.474Z,14.90
2023-05-14T05:47:55.078Z,14.98
2023-05-14T05:50:24.631Z,15.10
2023-05-14T05:52:53.521Z,15.30
2023-05-14T05:55:22.474Z,15.50
2023-05-14T05:57:51.138Z,15.70
2023-05-14T06:00:21.428Z,15.80
2023-05-14T06:02:50.229Z,15.70
2023-05-14T06:05:19.104Z,15.70
2023-05-14T06:07:48.124Z,15.80
2023-05-14T06:10:16.927Z,15.80
2023-05-14T06:12:45.898Z,16.00
2023-05-14T06:15:15.943Z,16.22
2023-05-14T06:17:44.713Z,16.40
2023-05-14T06:20:14.204Z,16.40
2023-05-14T06:22:42.884Z,16.40
2023-05-14T06:25:12.443Z,16.46
2023-05-14T06:27:41.029Z,16.58
2023-05-14T06:30:12.009Z,16.70
2023-05-14T06:32:40.784Z,16.90
2023-05-14T06:35:10.454Z,16.90
2023-05-14T06:37:39.178Z,16.92
2023-05-14T06:40:10.279Z,17.00
2023-05-14T06:42:39.032Z,17.00
2023-05-14T06:45:09.334Z,17.10
2023-05-14T06:47:37.953Z,17.30
2023-05-14T06:50:09.478Z,17.50
2023-05-14T06:52:39.590Z,17.60
2023-05-14T06:55:09.581Z,17.64
2023-05-14T06:57:40.588Z,17.70
2023-05-14T07:00:11.536Z,17.70
2023-05-14T07:02:40.342Z,17.70
2023-05-14T07:05:10.269Z,17.70
2023-05-14T07:07:39.147Z,17.72
2023-05-14T07:10:09.306Z,17.90
2023-05-14T07:12:38.098Z,18.00
2023-05-14T07:15:09.422Z,18.00
2023-05-14T07:17:38.375Z,17.90
2023-05-14T07:20:09.835Z,17.90
2023-05-14T07:22:38.521Z,17.90
2023-05-14T07:25:08.593Z,17.90
2023-05-14T07:27:37.226Z,17.90
2023-05-14T07:30:07.827Z,18.00
2023-05-14T07:32:36.546Z,18.10
2023-05-14T07:35:06.732Z,18.20
2023-05-14T07:37:35.527Z,18.30
2023-05-14T07:40:05.018Z,18.30
2023-05-14T07:42:37.063Z,18.40
2023-05-14T07:45:09.186Z,18.40
2023-05-14T07:47:38.997Z,18.54
2023-05-14T07:50:09.721Z,18.60
2023-05-14T07:52:38.750Z,18.68
2023-05-14T07:55:08.969Z,18.78
2023-05-14T07:57:37.744Z,18.90
2023-05-14T08:00:08.621Z,19.00
2023-05-14T08:02:43.326Z,19.10
2023-05-14T08:05:12.177Z,19.20
2023-05-14T08:07:40.970Z,19.32
2023-05-14T08:10:10.910Z,19.40
2023-05-14T08:12:39.596Z,19.50
2023-05-14T08:15:10.105Z,19.56
2023-05-14T08:17:39.017Z,19.70
2023-05-14T08:20:11.425Z,19.80
2023-05-14T08:22:40.180Z,20.02
2023-05-14T08:25:09.942Z,20.30
2023-05-14T08:27:38.786Z,20.64
2023-05-14T08:30:09.256Z,20.88
2023-05-14T08:32:39.860Z,21.00
2023-05-14T08:35:09.732Z,21.12
2023-05-14T08:37:38.450Z,21.00
2023-05-14T08:40:09.546Z,20.90
2023-05-14T08:42:41.025Z,21.00
2023-05-14T08:45:16.934Z,21.10
2023-05-14T08:47:47.367Z,21.20
2023-05-14T08:50:16.205Z,21.42
2023-05-14T08:52:44.899Z,21.80
2023-05-14T08:55:13.766Z,22.00
2023-05-14T08:57:42.490Z,22.36
2023-05-14T09:00:14.990Z,22.60
2023-05-14T09:02:45.010Z,22.90
2023-05-14T09:05:14.852Z,23.20
2023-05-14T09:07:43.654Z,23.40
2023-05-14T09:10:12.423Z,23.52
2023-05-14T09:12:41.049Z,23.80
2023-05-14T09:15:10.760Z,24.22
2023-05-14T09:17:39.591Z,24.60
2023-05-14T09:20:12.461Z,24.80
2023-05-14T09:22:41.947Z,24.98
2023-05-14T09:25:12.593Z,25.18
2023-05-14T09:27:41.166Z,25.36
2023-05-14T09:30:11.932Z,25.74
2023-05-14T09:32:43.333Z,26.00
2023-05-14T09:35:18.032Z,26.00
2023-05-14T09:37:49.235Z,25.74
2023-05-14T09:40:20.136Z,25.40
2023-05-14T09:42:49.037Z,25.82
2023-05-14T09:45:17.943Z,26.36
2023-05-14T09:47:46.888Z,26.60
2023-05-14T09:50:15.805Z,27.10
2023-05-14T09:52:44.465Z,27.24
2023-05-14T09:55:13.515Z,26.92
2023-05-14T09:57:42.298Z,26.18
2023-05-14T10:00:13.140Z,25.32
2023-05-14T10:02:42.806Z,24.60
2023-05-14T10:05:12.694Z,23.94
2023-05-14T10:07:42.813Z,23.40
2023-05-14T10:10:15.350Z,23.72
2023-05-14T10:12:45.513Z,24.10
2023-05-14T10:15:20.724Z,24.00
2023-05-14T10:17:56.675Z,24.34
2023-05-14T10:20:27.081Z,25.14
2023-05-14T10:22:56.191Z,26.44
2023-05-14T10:25:25.301Z,27.42
2023-05-14T10:27:54.165Z,28.48
2023-05-14T10:30:23.270Z,29.60
2023-05-14T10:33:06.204Z,30.30
2023-05-14T10:35:51.790Z,30.52
2023-05-14T10:38:26.676Z,30.60
2023-05-14T10:40:57.908Z,31.36
2023-05-14T10:43:28.899Z,31.84
2023-05-14T10:45:58.714Z,32.66
2023-05-14T10:48:27.759Z,33.14
2023-05-14T10:50:57.513Z,31.64
2023-05-14T10:53:36.023Z,30.64
2023-05-14T10:56:06.593Z,30.44
2023-05-14T10:58:38.023Z,31.44
2023-05-14T11:01:08.460Z,32.30
2023-05-14T11:03:45.442Z,33.56
2023-05-14T11:06:15.794Z,33.40
2023-05-14T11:08:45.844Z,33.22
2023-05-14T11:11:14.638Z,33.52
2023-05-14T11:13:43.728Z,33.70
2023-05-14T11:16:22.508Z,34.08
2023-05-14T11:19:01.548Z,34.94
2023-05-14T11:21:31.122Z,35.70
2023-05-14T11:24:00.734Z,36.28
2023-05-14T11:26:29.594Z,36.66
2023-05-14T11:28:58.305Z,36.70
2023-05-14T11:31:27.856Z,37.10
2023-05-14T11:33:56.856Z,37.18
2023-05-14T11:36:25.381Z,37.50
2023-05-14T11:38:54.134Z,37.80
2023-05-14T11:41:23.486Z,36.60
2023-05-14T11:43:52.201Z,35.14
2023-05-14T11:46:21.276Z,33.92
2023-05-14T11:48:49.885Z,33.50
2023-05-14T11:51:18.581Z,33.60
2023-05-14T11:53:47.237Z,34.04
2023-05-14T11:56:15.829Z,34.20
2023-05-14T11:58:49.575Z,33.22
2023-05-14T12:01:18.366Z,31.90
2023-05-14T12:03:47.186Z,32.18
2023-05-14T12:06:16.331Z,32.10
2023-05-14T12:08:47.718Z,31.76
2023-05-14T12:11:20.760Z,30.88
2023-05-14T12:13:49.499Z,30.20
2023-05-14T12:16:21.117Z,29.48
2023-05-14T12:18:49.789Z,28.70
2023-05-14T12:21:18.593Z,30.04
2023-05-14T12:23:47.245Z,31.86
2023-05-14T12:26:16.171Z,31.62
2023-05-14T12:28:47.514Z,31.54
2023-05-14T12:31:16.744Z,30.64
2023-05-14T12:33:45.397Z,30.40
2023-05-14T12:36:21.790Z,30.56
2023-05-14T12:38:51.436Z,30.50
2023-05-14T12:41:20.813Z,30.30
2023-05-14T12:43:49.515Z,31.58
2023-05-14T12:46:18.948Z,32.90
2023-05-14T12:48:47.641Z,34.04
2023-05-14T12:51:16.250Z,34.26
2023-05-14T12:53:47.937Z,32.68
2023-05-14T12:56:16.627Z,31.42
2023-05-14T12:58:46.757Z,32.24
2023-05-14T13:01:15.549Z,31.40
2023-05-14T13:03:44.232Z,30.46
2023-05-14T13:06:13.071Z,29.82
2023-05-14T13:08:42.706Z,29.92
2023-05-14T13:11:11.505Z,31.24
2023-05-14T13:13:40.090Z,30.64
2023-05-14T13:16:09.038Z,29.94
2023-05-14T13:18:37.767Z,29.20
2023-05-14T13:21:06.436Z,29.18
2023-05-14T13:23:35.134Z,29.52
2023-05-14T13:26:03.834Z,28.86
2023-05-14T13:28:32.564Z,28.38
2023-05-14T13:31:08.643Z,29.08
2023-05-14T13:33:40.274Z,29.96
2023-05-14T13:36:11.284Z,30.76
2023-05-14T13:38:40.111Z,31.48
2023-05-14T13:41:09.225Z,31.80
2023-05-14T13:43:37.981Z,31.80
2023-05-14T13:46:07.072Z,31.14
2023-05-14T13:48:36.749Z,30.70
2023-05-14T13:51:05.611Z,30.54
2023-05-14T13:53:34.330Z,30.50
2023-05-14T13:56:03.013Z,30.70
2023-05-14T13:58:31.760Z,30.90
2023-05-14T14:01:00.393Z,31.10
2023-05-14T14:03:29.119Z,30.90
2023-05-14T14:05:57.842Z,30.90
2023-05-14T14:08:26.608Z,30.64
2023-05-14T14:10:55.671Z,29.70
2023-05-14T14:13:24.699Z,28.98
2023-05-14T14:15:53.598Z,28.14
2023-05-14T14:18:22.203Z,27.42
2023-05-14T14:20:50.791Z,26.82
2023-05-14T14:23:19.597Z,26.20
2023-05-14T14:25:48.207Z,25.76
2023-05-14T14:28:16.945Z,25.30
2023-05-14T14:30:45.655Z,24.84
2023-05-14T14:33:14.371Z,24.60
2023-05-14T14:35:43.094Z,24.60
2023-05-14T14:38:12.013Z,24.50
2023-05-14T14:40:40.840Z,24.28
2023-05-14T14:43:09.600Z,23.86
2023-05-14T14:45:38.214Z,23.58
2023-05-14T14:48:27.180Z,23.50
2023-05-14T14:50:56.329Z,23.48
2023-05-14T14:53:25.043Z,23.40
2023-05-14T14:55:53.826Z,23.20
2023-05-14T14:58:22.936Z,23.00
2023-05-14T15:00:53.033Z,22.94
2023-05-14T15:03:22.137Z,22.90
2023-05-14T15:05:51.217Z,22.72
2023-05-14T15:08:20.782Z,22.60
2023-05-14T15:10:49.455Z,22.60
2023-05-14T15:13:18.792Z,22.50
2023-05-14T15:15:47.476Z,22.40
2023-05-14T15:18:16.302Z,22.30
2023-05-14T15:20:44.898Z,22.30
2023-05-14T15:23:13.678Z,22.30
2023-05-14T15:25:42.271Z,22.20
2023-05-14T15:28:10.995Z,22.20
2023-05-14T15:30:39.664Z,22.20
2023-05-14T15:33:09.082Z,22.20
2023-05-14T15:35:37.744Z,22.20
2023-05-14T15:38:06.741Z,22.30
2023-05-14T15:40:35.311Z,22.30
2023-05-14T15:43:03.857Z,22.30
2023-05-14T15:45:32.849Z,22.30
2023-05-14T15:48:01.605Z,22.20
2023-05-14T15:50:30.278Z,22.10
2023-05-14T15:53:00.016Z,22.00
2023-05-14T15:55:28.689Z,21.98
2023-05-14T15:57:57.347Z,21.96
2023-05-14T16:00:26.422Z,21.90
2023-05-14T16:02:55.921Z,21.90
2023-05-14T16:05:24.604Z,21.90
2023-05-14T16:07:53.293Z,21.90
2023-05-14T16:10:22.321Z,21.80
2023-05-14T16:12:51.099Z,21.70
2023-05-14T16:15:19.812Z,21.58
2023-05-14T16:17:48.492Z,21.48
2023-05-14T16:20:17.173Z,21.30
2023-05-14T16:22:45.742Z,21.20
2023-05-14T16:25:14.479Z,21.10
2023-05-14T16:27:43.124Z,21.00
2023-05-14T16:30:12.986Z,20.94
2023-05-14T16:32:41.636Z,20.90
2023-05-14T16:35:10.928Z,20.80
2023-05-14T16:37:39.553Z,20.70
2023-05-14T16:40:11.233Z,20.70
2023-05-14T16:42:39.870Z,20.60
2023-05-14T16:45:10.578Z,20.50
2023-05-14T16:47:39.254Z,20.40
2023-05-14T16:50:09.425Z,20.30
2023-05-14T16:52:38.416Z,20.30
2023-05-14T16:55:08.919Z,20.20
2023-05-14T16:57:37.636Z,20.20
2023-05-14T17:00:08.958Z,20.18
2023-05-14T17:02:37.584Z,20.10
2023-05-14T17:05:08.262Z,20.10
2023-05-14T17:07:38.499Z,20.00
2023-05-14T17:10:09.434Z,20.00
2023-05-14T17:12:38.143Z,20.00
2023-05-14T17:15:09.203Z,19.94
2023-05-14T17:17:38.015Z,19.90
2023-05-14T17:20:08.566Z,19.90
2023-05-14T17:22:37.538Z,19.90
2023-05-14T17:25:08.281Z,19.80
2023-05-14T17:27:37.162Z,19.80
2023-05-14T17:30:08.066Z,19.70
2023-05-14T17:32:36.761Z,19.70
2023-05-14T17:35:06.607Z,19.68
2023-05-14T17:37:36.040Z,19.60
2023-05-14T17:40:05.714Z,19.50
2023-05-14T17:42:34.504Z,19.40
2023-05-14T17:45:03.329Z,19.38
2023-05-14T17:47:32.049Z,19.30
2023-05-14T17:50:00.759Z,19.20
2023-05-14T17:52:29.442Z,19.10
2023-05-14T17:54:58.170Z,19.10
2023-05-14T17:57:26.820Z,19.00
2023-05-14T17:59:55.493Z,19.00
2023-05-14T18:02:23.990Z,18.90
2023-05-14T18:04:52.732Z,18.90
2023-05-14T18:07:22.112Z,18.80
2023-05-14T18:09:51.287Z,18.80
2023-05-14T18:12:19.949Z,18.70
2023-05-14T18:14:48.725Z,18.70
2023-05-14T18:17:17.408Z,18.60
2023-05-14T18:19:46.337Z,18.60
2023-05-14T18:22:15.071Z,18.50
2023-05-14T18:24:44.117Z,18.50
2023-05-14T18:27:12.737Z,18.40
2023-05-14T18:29:42.201Z,18.40
2023-05-14T18:32:10.895Z,18.30
2023-05-14T18:34:39.592Z,18.30
2023-05-14T18:37:08.868Z,18.20
2023-05-14T18:39:37.458Z,18.20
2023-05-14T18:42:07.099Z,18.10
2023-05-14T18:44:35.720Z,18.10
2023-05-14T18:47:05.157Z,18.00
2023-05-14T18:49:33.836Z,18.00
2023-05-14T18:52:02.582Z,17.90
2023-05-14T18:54:31.354Z,17.90
2023-05-14T18:57:00.236Z,17.80
2023-05-14T18:59:28.894Z,17.80
2023-05-14T19:01:57.741Z,17.72
2023-05-14T19:04:26.528Z,17.70
2023-05-14T19:06:55.219Z,17.70
2023-05-14T19:09:24.988Z,17.64
2023-05-14T19:11:55.081Z,17.60
2023-05-14T19:14:23.759Z,17.60
2023-05-14T19:16:52.687Z,17.52
2023-05-14T19:19:21.418Z,17.50
2023-05-14T19:21:50.242Z,17.50
2023-05-14T19:24:19.236Z,17.40
2023-05-14T19:26:47.877Z,17.40
2023-05-14T19:29:16.484Z,17.30
2023-05-14T19:31:45.255Z,17.30
2023-05-14T19:34:14.064Z,17.28
2023-05-14T19:36:42.880Z,17.20
2023-05-14T19:39:11.498Z,17.20
2023-05-14T19:41:40.173Z,17.20
2023-05-14T19:44:08.910Z,17.20
2023-05-14T19:46:37.579Z,17.20
2023-05-14T19:49:06.345Z,17.20
2023-05-14T19:51:34.993Z,17.00
2023-05-14T19:54:03.756Z,16.74
2023-05-14T19:56:32.575Z,16.52
2023-05-14T19:59:01.141Z,16.40
2023-05-14T20:01:29.978Z,16.24
2023-05-14T20:03:58.610Z,16.10
2023-05-14T20:06:27.333Z,16.00
2023-05-14T20:08:56.092Z,16.00
2023-05-14T20:11:24.880Z,15.90
2023-05-14T20:13:53.532Z,15.80
2023-05-14T20:16:22.985Z,15.80
2023-05-14T20:18:52.820Z,15.70
2023-05-14T20:21:21.608Z,15.70
2023-05-14T20:23:50.198Z,15.70
2023-05-14T20:26:18.801Z,15.70
2023-05-14T20:28:47.528Z,15.70
2023-05-14T20:31:16.148Z,15.70
2023-05-14T20:33:45.025Z,15.68
2023-05-14T20:36:13.528Z,15.60
2023-05-14T20:38:42.180Z,15.50
2023-05-14T20:41:10.925Z,15.40
2023-05-14T20:43:39.625Z,15.40
2023-05-14T20:46:08.748Z,15.30
2023-05-14T20:48:37.389Z,15.30
2023-05-14T20:51:06.357Z,15.30
2023-05-14T20:53:38.591Z,15.20
2023-05-14T20:56:07.489Z,15.20
2023-05-14T20:58:36.432Z,15.20
2023-05-14T21:01:07.436Z,15.20
2023-05-14T21:03:36.255Z,15.20
2023-05-14T21:06:05.414Z,15.14
2023-05-14T21:08:34.974Z,15.10
2023-05-14T21:11:03.525Z,15.10
2023-05-14T21:13:32.155Z,15.10
2023-05-14T21:16:00.955Z,15.10
2023-05-14T21:18:32.150Z,15.00
2023-05-14T21:21:00.904Z,15.00
2023-05-14T21:23:29.491Z,14.90
2023-05-14T21:25:58.059Z,14.90
2023-05-14T21:28:26.692Z,14.90
2023-05-14T21:30:55.189Z,14.80
2023-05-14T21:33:23.801Z,14.80
2023-05-14T21:35:52.425Z,14.78
2023-05-14T21:38:21.053Z,14.70
2023-05-14T21:40:49.656Z,14.66
2023-05-14T21:43:18.291Z,14.60
2023-05-14T21:45:47.009Z,14.50
2023-05-14T21:48:15.702Z,14.40
2023-05-14T21:50:44.341Z,14.38
2023-05-14T21:53:13.066Z,14.30
2023-05-14T21:55:41.642Z,14.20
2023-05-14T21:58:10.276Z,14.20
2023-05-14T22:00:38.852Z,14.10
2023-05-14T22:03:07.593Z,14.10
2023-05-14T22:05:36.443Z,14.04
2023-05-14T22:08:05.875Z,14.04
2023-05-14T22:10:35.330Z,14.00
2023-05-14T22:13:03.977Z,14.00
2023-05-14T22:15:32.610Z,14.00
2023-05-14T22:18:02.632Z,14.00
2023-05-14T22:20:31.250Z,14.00
2023-05-14T22:22:59.899Z,14.00
2023-05-14T22:25:28.469Z,14.00
2023-05-14T22:27:57.061Z,13.96
2023-05-14T22:30:25.680Z,13.98
2023-05-14T22:32:54.317Z,14.00
2023-05-14T22:35:23.017Z,14.00
2023-05-14T22:37:51.765Z,13.98
2023-05-14T22:40:20.689Z,14.00
2023-05-14T22:42:49.313Z,14.00
2023-05-14T22:45:17.919Z,14.00
2023-05-14T22:47:46.468Z,13.90
2023-05-14T22:50:15.072Z,13.90
2023-05-14T22:52:43.766Z,13.90
2023-05-14T22:55:12.294Z,13.90
2023-05-14T22:57:41.000Z,13.90
2023-05-14T23:00:11.912Z,13.90
2023-05-14T23:02:40.642Z,13.90
2023-05-14T23:05:10.456Z,13.90
2023-05-14T23:07:39.146Z,13.90
2023-05-14T23:10:09.513Z,13.80
2023-05-14T23:12:38.103Z,13.80
2023-05-14T23:15:08.132Z,13.70
2023-05-14T23:17:37.472Z,13.70
2023-05-14T23:20:10.654Z,13.60
2023-05-14T23:22:39.295Z,13.60
2023-05-14T23:25:09.453Z,13.60
2023-05-14T23:27:38.195Z,13.54
2023-05-14T23:30:08.736Z,13.50
2023-05-14T23:32:37.369Z,13.50
2023-05-14T23:35:06.958Z,13.50
2023-05-14T23:37:41.075Z,13.50
2023-05-14T23:40:11.054Z,13.50
2023-05-14T23:42:39.846Z,13.50
2023-05-14T23:45:10.317Z,13.48
2023-05-14T23:47:39.105Z,13.48
2023-05-14T23:50:08.541Z,13.40
2023-05-14T23:52:37.148Z,13.40
2023-05-14T23:55:07.237Z,13.40
2023-05-14T23:57:35.863Z,13.40
